Aérodrome :
LOGIN :

S'inscrire | Disclaimer

   EN    FR    IT 

 










Légende :    VFR   VFR Marginal   IFR   IFR Intensif   IFR Très Intensif
Visi : 
Plafond : 
>= 8 km
>= 3000ft
5 à 8 km
1000 à 3000 ft
1500m à 5 km
500 à 1000 ft
800 à 1500m
200 à 500 ft
< 800m
< 200 ft
Symboles :   Orages  Brouillard  Fortes neiges  Fortes précipitations  Vent > 20 kt
SIGMETs :   Divers  Orages  Givrage  Turbulence  Onde Orograph.  Cendres Volcan.







- Altitude de l'aérodrome : 203 ft
- Code IATA : XMJ
- Voir les cartes d'approche


LFBM - Mont-De-Marsan

DERNIER METAR :
  • 260400Z AUTO 34006KT 9999 -RA FEW029 OVC036 06/05 Q1011 TEMPO 4000 -RADZ BKN010 BKN020

METARs EXPIRÉS :
  • 260330Z AUTO 34006KT 9999 -RA SCT013 BKN028 OVC037 06/05 Q1011 TEMPO 4000 -RADZ BKN010 BKN020
  • 260300Z AUTO 35008KT 9999 -DZ OVC013 07/05 Q1011 BECMG BKN008 BKN020
  • 260230Z AUTO 34008KT 9999 -RA OVC009 07/06 Q1011 NOSIG
  • 260200Z AUTO 34007KT 9999 OVC010 07/06 Q1010 TEMPO 4000 -RADZ
  • 260130Z AUTO 35007KT 9999 OVC007 08/06 Q1010 TEMPO 4000 -RADZ
  • 260100Z AUTO 01005KT 340V050 9999 BKN008 OVC022 08/07 Q1010 TEMPO 4000 -RADZ

TAF AMD TAF LFBM
Valide du 26 à 03h jusqu'au 27 à 03h UTC


260321Z 2603/2703 33008KT 9999 BKN025
TEMPO 2603/2606 4000 -RADZ BKN010 BKN020
TEMPO 2609/2618 4000 -SHRA SCT035TCU
Pas de NOTAMs connus pour ce terrain.



MET'MAP, la Météo Aéronautique d'un coup d'oeil ! - Copyright ORBIFLY Décembre 2007 - Disclaimer

ORBIFLY MET'MAP TEAM :

Programmation & Développement : Alexandra Zaïnal
Conception & Développement : Baudouin d'Aumeries
Co-Programmation & Développement : Marc-Olivier Méhu
Soutien technique & logistique : Manuel Goepfert

Contact : metmap@orbifly.com




SOURCES & CREDITS :

   NOAA